Time;durP1;ratioP1;P1;durP2;ratioP2;P2;SDS_P1;SDS_P2;PMS_P1;PMS_P2;Temp;Humidity;BMP_temperature;BMP_pressure;BME280_temperature;BME280_humidity;BME280_pressure;Samples;Min_cycle;Max_cycle;Signal;HPM_P1;HPM_P2
2021/08/02 00:00:24;;;;;;;;;5.20;4.80;;;;;21.86;58.94;97929.63;6049519;28;97062;-60
2021/08/02 00:03:31;;;;;;;;;6.00;5.00;;;;;21.87;58.58;97924.94;6051542;28;97718;-59
2021/08/02 00:06:43;;;;;;;;;4.60;4.00;;;;;21.82;58.82;97936.88;6064630;28;97495;-56
2021/08/02 00:09:50;;;;;;;;;6.00;5.20;;;;;21.84;58.63;97934.63;6060354;28;97619;-59
2021/08/02 00:12:59;;;;;;;;;5.00;4.00;;;;;21.88;59.14;97923.81;6067241;28;97462;-58
2021/08/02 00:16:08;;;;;;;;;6.40;5.40;;;;;21.89;58.72;97933.69;6065459;28;96937;-57
2021/08/02 00:19:12;;;;;;;;;4.00;4.00;;;;;21.86;58.83;97926.06;6058326;28;96687;-60
2021/08/02 00:22:15;;;;;;;;;6.60;6.00;;;;;21.84;58.74;97945.63;6059493;28;97679;-60
2021/08/02 00:25:20;;;;;;;;;6.20;6.00;;;;;21.93;59.05;97951.97;6061783;28;97562;-59
2021/08/02 00:28:24;;;;;;;;;5.00;5.00;;;;;21.81;58.90;97951.72;6064405;28;97696;-58
2021/08/02 00:31:28;;;;;;;;;6.00;6.00;;;;;21.72;58.76;97950.06;6063575;28;97223;-59
2021/08/02 00:34:31;;;;;;;;;5.00;4.60;;;;;21.82;58.79;97956.09;6052778;28;97541;-58
2021/08/02 00:37:39;;;;;;;;;4.80;4.20;;;;;21.82;58.28;97952.53;6054801;28;96464;-56
2021/08/02 00:41:11;;;;;;;;;5.80;5.00;;;;;21.80;58.19;97968.47;6056528;28;96668;-59
2021/08/02 00:44:57;;;;;;;;;5.60;5.60;;;;;21.82;58.22;97979.97;6058304;28;97506;-60
2021/08/02 00:48:05;;;;;;;;;6.00;5.00;;;;;21.70;58.13;97979.75;6067039;28;97435;-58
2021/08/02 00:51:09;;;;;;;;;4.00;4.00;;;;;21.68;58.55;97974.59;6054593;28;98353;-58
2021/08/02 00:54:16;;;;;;;;;6.00;6.00;;;;;21.51;58.87;97974.47;6031243;28;97689;-60
2021/08/02 00:57:23;;;;;;;;;5.25;4.25;;;;;21.51;58.65;97967.06;6051878;28;96760;-60
2021/08/02 01:00:26;;;;;;;;;7.00;7.00;;;;;21.54;58.95;97977.44;6051050;28;98123;-59
2021/08/02 01:03:32;;;;;;;;;5.75;5.00;;;;;21.53;59.07;97966.75;6069614;28;96687;-59
2021/08/02 01:06:41;;;;;;;;;5.25;5.25;;;;;21.67;58.78;97975.72;6068549;28;96953;-60
2021/08/02 01:09:47;;;;;;;;;5.00;4.00;;;;;21.62;58.94;97975.84;6052189;28;97305;-58
2021/08/02 01:12:58;;;;;;;;;6.40;5.00;;;;;21.63;58.51;97974.72;6046228;28;97018;-59
2021/08/02 01:16:04;;;;;;;;;5.00;5.00;;;;;21.68;58.58;97977.34;6063369;28;96972;-59
2021/08/02 01:19:12;;;;;;;;;6.00;5.25;;;;;21.41;58.83;97970.06;6068403;28;97459;-60
2021/08/02 01:22:26;;;;;;;;;7.00;6.40;;;;;21.30;58.67;97974.22;6068202;28;97511;-60
2021/08/02 01:26:03;;;;;;;;;5.50;5.50;;;;;21.38;58.75;97991.84;6068598;28;96610;-56
2021/08/02 01:29:48;;;;;;;;;7.00;7.00;;;;;21.37;58.78;98001.19;6040042;28;97544;-58
2021/08/02 01:32:53;;;;;;;;;6.60;6.60;;;;;21.29;58.91;97996.47;6069610;28;96597;-57
2021/08/02 01:35:59;;;;;;;;;6.75;5.75;;;;;21.17;58.96;98002.50;6056628;28;96605;-57
2021/08/02 01:39:04;;;;;;;;;5.00;5.00;;;;;20.99;58.82;97996.06;6046909;28;97945;-58
2021/08/02 01:42:07;;;;;;;;;6.00;6.00;;;;;20.85;59.58;97994.50;6068124;28;96817;-59
2021/08/02 01:45:12;;;;;;;;;5.00;4.60;;;;;20.57;59.53;97969.13;6054449;28;97496;-57
2021/08/02 01:48:20;;;;;;;;;5.00;5.00;;;;;20.97;59.00;98014.72;6049525;28;97386;-59
2021/08/02 01:51:36;;;;;;;;;6.00;6.00;;;;;20.91;59.40;98012.44;6069116;28;96447;-58
2021/08/02 01:54:55;;;;;;;;;4.25;4.00;;;;;20.94;58.77;98017.28;6055856;28;96828;-59
2021/08/02 01:58:00;;;;;;;;;5.00;5.00;;;;;20.99;58.84;98017.97;6074658;28;96768;-59
2021/08/02 02:01:13;;;;;;;;;6.00;6.00;;;;;20.98;58.63;98016.34;6074425;28;96849;-58
2021/08/02 02:04:20;;;;;;;;;7.00;7.00;;;;;21.07;58.48;98022.72;6090019;28;96777;-58
2021/08/02 02:07:26;;;;;;;;;7.20;6.60;;;;;20.98;58.36;98026.50;6092836;28;97460;-57
2021/08/02 02:10:57;;;;;;;;;5.00;5.00;;;;;21.04;58.26;98036.22;6091882;28;96550;-57
2021/08/02 02:14:13;;;;;;;;;7.80;7.00;;;;;21.05;58.52;98037.84;6067419;28;97464;-58
2021/08/02 02:17:21;;;;;;;;;7.00;6.00;;;;;21.08;57.90;98042.72;6073943;28;97744;-56
2021/08/02 02:20:27;;;;;;;;;7.75;7.00;;;;;21.09;57.69;98053.38;6073768;28;97087;-58
2021/08/02 02:23:31;;;;;;;;;6.60;6.00;;;;;21.14;58.09;98038.75;6073285;28;96751;-59
2021/08/02 02:26:38;;;;;;;;;7.00;5.80;;;;;21.22;57.96;98048.16;6074085;28;96716;-58
2021/08/02 02:29:45;;;;;;;;;9.00;8.50;;;;;21.26;57.17;98049.19;6091047;28;96532;-57
2021/08/02 02:32:52;;;;;;;;;7.00;7.00;;;;;21.16;57.56;98031.03;6089747;28;97302;-57
2021/08/02 02:35:57;;;;;;;;;7.20;6.80;;;;;21.23;57.27;98058.81;6067419;28;97114;-58
2021/08/02 02:39:05;;;;;;;;;8.00;7.20;;;;;21.29;57.44;98051.28;6066809;28;97089;-58
2021/08/02 02:42:11;;;;;;;;;8.00;8.00;;;;;21.34;57.47;98051.97;6068616;28;97352;-59
2021/08/02 02:45:17;;;;;;;;;8.20;8.00;;;;;21.34;57.76;98060.22;6071859;28;96529;-58
2021/08/02 02:48:22;;;;;;;;;7.60;7.00;;;;;21.37;57.32;98067.78;6090766;28;97015;-59
2021/08/02 02:51:27;;;;;;;;;10.60;10.00;;;;;21.34;57.33;98078.59;6061683;28;96680;-59
2021/08/02 02:54:33;;;;;;;;;11.00;11.00;;;;;21.36;57.65;98070.84;6089955;28;97135;-58
2021/08/02 02:57:41;;;;;;;;;10.00;10.00;;;;;21.35;57.41;98083.78;6072200;28;97161;-58
2021/08/02 03:00:49;;;;;;;;;10.20;10.00;;;;;21.45;57.60;98080.75;6071197;28;97101;-57
2021/08/02 03:03:59;;;;;;;;;12.00;11.60;;;;;21.35;57.25;98088.44;6089571;28;96832;-58
2021/08/02 03:07:11;;;;;;;;;12.00;11.00;;;;;21.37;57.64;98094.41;6090531;28;98057;-59
2021/08/02 03:10:21;;;;;;;;;13.00;12.20;;;;;21.30;57.61;98094.84;6059305;28;97490;-59
2021/08/02 03:13:26;;;;;;;;;14.00;13.00;;;;;21.30;57.71;98094.84;6084242;28;97097;-59
2021/08/02 03:16:30;;;;;;;;;14.00;14.00;;;;;21.28;57.83;98099.00;6089384;28;97418;-59
2021/08/02 03:19:33;;;;;;;;;13.00;12.00;;;;;21.30;57.73;98099.53;6090758;28;97094;-58
2021/08/02 03:22:42;;;;;;;;;14.00;13.00;;;;;21.29;57.55;98101.44;6089475;28;97283;-57
2021/08/02 03:25:49;;;;;;;;;15.00;14.00;;;;;21.31;58.03;98107.41;6059520;28;98317;-58
2021/08/02 03:28:59;;;;;;;;;17.00;16.00;;;;;21.27;57.77;98108.34;6087791;28;98106;-59
2021/08/02 03:32:06;;;;;;;;;16.50;15.00;;;;;21.23;58.01;98113.66;6075081;28;97642;-58
2021/08/02 03:35:13;;;;;;;;;15.40;14.00;;;;;21.33;57.67;98123.56;6089002;28;97466;-58
2021/08/02 03:38:18;;;;;;;;;16.00;15.00;;;;;21.26;58.07;98125.94;6078723;28;97567;-58
2021/08/02 03:41:22;;;;;;;;;18.60;17.00;;;;;21.30;58.14;98127.75;6082648;28;96862;-57
2021/08/02 03:44:28;;;;;;;;;18.00;16.00;;;;;21.34;57.82;98134.25;6072508;28;96993;-57
2021/08/02 03:47:32;;;;;;;;;19.00;17.00;;;;;21.27;58.13;98130.28;6090943;28;97272;-56
2021/08/02 03:50:36;;;;;;;;;16.00;15.00;;;;;21.20;57.79;98136.22;6089068;28;97397;-58
2021/08/02 03:53:41;;;;;;;;;19.00;17.00;;;;;21.00;58.31;98112.78;6088309;28;97512;-59
2021/08/02 03:56:45;;;;;;;;;17.80;15.80;;;;;21.20;57.60;98133.47;6087560;28;97079;-58
2021/08/02 03:59:52;;;;;;;;;17.00;16.00;;;;;21.15;58.11;98137.13;6087076;28;96493;-60
2021/08/02 04:02:55;;;;;;;;;15.00;15.00;;;;;21.12;57.69;98139.63;6087509;28;98673;-56
2021/08/02 04:05:59;;;;;;;;;15.00;14.00;;;;;21.17;58.07;98132.13;6087688;28;97081;-60
2021/08/02 04:09:05;;;;;;;;;16.60;15.00;;;;;21.00;58.03;98148.41;6074971;28;97409;-59
2021/08/02 04:12:10;;;;;;;;;18.00;16.60;;;;;21.08;57.85;98152.34;6087318;28;98034;-61
2021/08/02 04:15:14;;;;;;;;;17.00;16.00;;;;;20.97;58.11;98140.78;6091708;28;97129;-60
2021/08/02 04:18:18;;;;;;;;;16.80;14.80;;;;;21.10;58.39;98156.41;6084440;28;96948;-56
2021/08/02 04:21:21;;;;;;;;;16.75;15.75;;;;;20.86;57.85;98122.97;6093836;28;97575;-60
2021/08/02 04:24:25;;;;;;;;;14.00;13.00;;;;;21.10;58.16;98153.66;6092321;28;97371;-60
2021/08/02 04:27:28;;;;;;;;;17.00;14.00;;;;;21.18;58.17;98163.09;6093012;28;98212;-59
2021/08/02 04:30:33;;;;;;;;;14.00;13.00;;;;;21.25;58.12;98169.00;6084907;28;97331;-60
2021/08/02 04:33:37;;;;;;;;;15.40;15.40;;;;;21.23;57.71;98165.72;6092271;28;97386;-59
2021/08/02 04:36:40;;;;;;;;;15.00;13.25;;;;;21.20;57.57;98182.00;6075613;28;97237;-60
2021/08/02 04:39:50;;;;;;;;;16.50;14.50;;;;;21.14;57.99;98181.28;6093286;28;97771;-56
2021/08/02 04:42:53;;;;;;;;;14.00;13.00;;;;;21.04;58.09;98192.44;6092663;28;97757;-58
2021/08/02 04:45:58;;;;;;;;;16.00;14.60;;;;;21.08;58.31;98196.19;6076787;28;97573;-59
2021/08/02 04:49:01;;;;;;;;;16.00;15.50;;;;;21.12;58.13;98195.25;6078267;28;96698;-60
2021/08/02 04:52:05;;;;;;;;;15.60;14.60;;;;;21.18;57.82;98190.53;6092972;28;97314;-60
2021/08/02 04:55:12;;;;;;;;;15.40;14.00;;;;;21.07;57.89;98200.84;6092740;28;97947;-59
2021/08/02 04:58:16;;;;;;;;;14.00;13.75;;;;;21.19;57.89;98205.84;6093022;28;96591;-59
2021/08/02 05:01:23;;;;;;;;;11.00;11.00;;;;;21.24;57.86;98194.78;6092296;28;96814;-60
2021/08/02 05:04:26;;;;;;;;;13.60;12.00;;;;;21.23;57.70;98206.03;6092522;28;97247;-60
2021/08/02 05:07:30;;;;;;;;;11.00;10.20;;;;;21.26;57.72;98203.50;6092055;28;98056;-61
2021/08/02 05:10:33;;;;;;;;;12.40;11.40;;;;;21.32;57.46;98205.00;6093109;28;97386;-61
2021/08/02 05:13:36;;;;;;;;;10.00;10.00;;;;;21.45;57.12;98195.13;6093007;28;97398;-60
2021/08/02 05:16:43;;;;;;;;;10.00;9.00;;;;;21.43;57.06;98219.31;6091892;28;97431;-57
2021/08/02 05:19:47;;;;;;;;;11.00;10.50;;;;;21.45;56.45;98220.59;6088931;28;96602;-60
2021/08/02 05:22:51;;;;;;;;;9.40;9.00;;;;;21.42;56.21;98223.97;6091807;28;97086;-59
2021/08/02 05:25:57;;;;;;;;;12.00;10.50;;;;;21.42;56.35;98229.47;6085755;28;96665;-58
2021/08/02 05:29:00;;;;;;;;;12.00;12.00;;;;;21.47;56.03;98221.13;6083838;28;96639;-59
2021/08/02 05:32:06;;;;;;;;;13.40;12.00;;;;;21.38;56.21;98219.41;6090339;28;97290;-57
2021/08/02 05:35:10;;;;;;;;;11.00;9.00;;;;;21.42;56.28;98228.66;6076270;28;97006;-58
2021/08/02 05:38:13;;;;;;;;;11.75;9.00;;;;;21.44;56.24;98237.38;6091434;28;97697;-57
2021/08/02 05:41:16;;;;;;;;;9.00;8.00;;;;;21.48;56.04;98238.38;6090915;28;97448;-57
2021/08/02 05:44:20;;;;;;;;;10.00;9.00;;;;;21.43;55.94;98235.75;6077093;28;97521;-61
2021/08/02 05:47:24;;;;;;;;;9.00;9.00;;;;;21.47;55.48;98236.75;6087044;28;96690;-60
2021/08/02 05:50:28;;;;;;;;;7.00;6.60;;;;;21.43;55.71;98239.31;6092787;28;97519;-59
2021/08/02 05:53:31;;;;;;;;;6.00;6.00;;;;;21.36;56.14;98249.06;6071534;28;97174;-60
2021/08/02 05:56:34;;;;;;;;;7.00;7.00;;;;;21.35;55.75;98251.03;6087022;28;97003;-60
2021/08/02 05:59:38;;;;;;;;;9.00;8.60;;;;;21.35;55.78;98252.94;6076318;28;97582;-61
2021/08/02 06:02:42;;;;;;;;;7.00;6.25;;;;;21.41;55.80;98259.94;6091857;28;97452;-61
2021/08/02 06:05:46;;;;;;;;;9.00;8.00;;;;;21.40;55.92;98264.63;6091991;28;97004;-60
2021/08/02 06:08:50;;;;;;;;;6.00;6.00;;;;;21.34;56.11;98274.06;6090113;28;97054;-60
2021/08/02 06:11:53;;;;;;;;;7.60;6.60;;;;;21.39;56.25;98273.16;6091828;28;97401;-59
2021/08/02 06:14:56;;;;;;;;;7.00;7.00;;;;;21.41;55.65;98276.38;6092050;28;98077;-59
2021/08/02 06:18:02;;;;;;;;;8.00;7.00;;;;;21.41;55.64;98282.69;6091470;28;97405;-59
2021/08/02 06:21:07;;;;;;;;;7.60;7.40;;;;;21.44;55.38;98286.75;6074875;28;96758;-60
2021/08/02 06:24:11;;;;;;;;;6.00;6.00;;;;;21.48;55.87;98283.09;6068347;28;97786;-59
2021/08/02 06:27:14;;;;;;;;;6.20;6.20;;;;;21.51;55.34;98287.94;6084565;28;96761;-59
2021/08/02 06:30:18;;;;;;;;;7.00;7.00;;;;;21.51;55.21;98292.63;6091722;28;97472;-58
2021/08/02 06:33:23;;;;;;;;;5.60;5.00;;;;;21.57;54.94;98292.22;6090323;28;96669;-60
2021/08/02 06:36:26;;;;;;;;;6.00;5.40;;;;;21.65;55.01;98304.38;6090653;28;98692;-59
2021/08/02 06:39:30;;;;;;;;;6.60;6.40;;;;;21.68;55.04;98301.03;6081362;28;96762;-59
2021/08/02 06:42:33;;;;;;;;;6.67;6.00;;;;;21.72;54.81;98301.22;6091592;28;97223;-61
2021/08/02 06:45:37;;;;;;;;;5.40;5.40;;;;;21.75;54.80;98298.66;6090776;28;97483;-61
2021/08/02 06:48:42;;;;;;;;;6.00;6.00;;;;;21.76;54.01;98307.72;6090783;28;96697;-61
2021/08/02 06:51:46;;;;;;;;;4.00;4.00;;;;;21.78;54.14;98306.28;6090640;28;97734;-58
2021/08/02 06:54:49;;;;;;;;;5.00;5.00;;;;;21.69;54.15;98316.38;6090753;28;97022;-60
2021/08/02 06:57:53;;;;;;;;;5.80;5.00;;;;;21.81;54.25;98318.56;6074776;28;97666;-59
2021/08/02 07:00:56;;;;;;;;;5.00;5.00;;;;;21.78;54.12;98324.69;6066060;28;96739;-61
2021/08/02 07:04:01;;;;;;;;;5.00;5.00;;;;;21.79;53.84;98320.84;6089709;28;97445;-60
2021/08/02 07:07:06;;;;;;;;;5.00;5.00;;;;;21.79;53.80;98321.66;6075237;28;97534;-61
2021/08/02 07:10:10;;;;;;;;;5.00;4.00;;;;;21.79;53.36;98320.84;6081596;28;96673;-61
2021/08/02 07:13:15;;;;;;;;;5.75;5.00;;;;;21.77;53.69;98326.63;6083568;28;97447;-61
2021/08/02 07:16:19;;;;;;;;;5.00;5.00;;;;;21.90;54.11;98327.69;6089356;28;97508;-61
2021/08/02 07:19:23;;;;;;;;;5.40;4.40;;;;;22.05;53.33;98321.91;6089180;28;98076;-60
2021/08/02 07:22:27;;;;;;;;;6.00;4.60;;;;;22.08;53.08;98331.47;6088594;28;97216;-59
2021/08/02 07:25:30;;;;;;;;;5.00;4.00;;;;;22.23;53.27;98322.88;6090100;28;97106;-59
2021/08/02 07:28:33;;;;;;;;;4.00;4.00;;;;;22.26;52.82;98317.56;6088205;28;96713;-58
2021/08/02 07:31:37;;;;;;;;;5.00;5.00;;;;;22.34;52.74;98316.78;6088764;28;97332;-58
2021/08/02 07:34:41;;;;;;;;;5.00;5.00;;;;;22.46;52.79;98317.06;6088566;28;96714;-59
2021/08/02 07:37:45;;;;;;;;;5.20;5.20;;;;;22.48;52.29;98325.78;6087661;28;97241;-59
2021/08/02 07:40:48;;;;;;;;;6.00;6.00;;;;;22.64;52.61;98330.88;6087694;28;96989;-58
2021/08/02 07:43:51;;;;;;;;;7.00;6.00;;;;;22.59;52.14;98322.78;6085888;28;97434;-59
2021/08/02 07:46:55;;;;;;;;;7.00;7.00;;;;;22.73;52.41;98334.53;6075356;28;97306;-60
2021/08/02 07:50:00;;;;;;;;;5.00;5.00;;;;;22.80;51.78;98343.97;6082119;28;96693;-59
2021/08/02 07:53:03;;;;;;;;;8.80;7.20;;;;;22.94;52.04;98348.56;6089943;28;97779;-60
2021/08/02 07:56:07;;;;;;;;;5.00;5.00;;;;;22.96;51.19;98343.56;6081262;28;96682;-59
2021/08/02 07:59:11;;;;;;;;;6.00;6.00;;;;;23.00;51.76;98348.13;6089255;28;96809;-60
2021/08/02 08:02:14;;;;;;;;;7.00;6.75;;;;;22.98;52.07;98327.56;6089189;28;97216;-58
2021/08/02 08:05:19;;;;;;;;;7.25;5.50;;;;;23.20;51.72;98353.06;6072420;28;97704;-58
2021/08/02 08:08:23;;;;;;;;;5.20;5.00;;;;;23.13;51.53;98349.97;6089548;28;96603;-60
2021/08/02 08:11:26;;;;;;;;;6.60;6.40;;;;;23.03;51.56;98361.22;6088864;28;97582;-60
2021/08/02 08:14:29;;;;;;;;;8.00;7.00;;;;;22.96;51.29;98358.13;6088713;28;96683;-58
2021/08/02 08:17:33;;;;;;;;;6.00;6.00;;;;;23.03;51.33;98355.72;6089748;28;97069;-59
2021/08/02 08:20:38;;;;;;;;;6.25;6.00;;;;;23.13;51.13;98354.63;6088815;28;98805;-58
2021/08/02 08:23:41;;;;;;;;;5.40;5.40;;;;;23.27;50.83;98360.84;6090315;28;97035;-58
2021/08/02 08:26:44;;;;;;;;;6.00;5.80;;;;;23.43;50.78;98359.31;6089370;28;97552;-59
2021/08/02 08:29:47;;;;;;;;;7.00;7.00;;;;;23.46;50.34;98361.44;6072186;28;96846;-59
2021/08/02 08:32:51;;;;;;;;;7.00;7.00;;;;;23.59;49.94;98377.03;6089389;28;97489;-60
2021/08/02 08:35:57;;;;;;;;;6.75;6.00;;;;;23.86;50.13;98373.22;6089671;28;97609;-58
2021/08/02 08:39:00;;;;;;;;;6.00;6.00;;;;;23.94;49.60;98383.44;6089785;28;96596;-59
2021/08/02 08:42:05;;;;;;;;;7.00;6.50;;;;;23.88;48.51;98378.41;6089141;28;97502;-60
2021/08/02 08:45:10;;;;;;;;;7.00;7.00;;;;;23.98;48.62;98381.66;6089041;28;98722;-59
2021/08/02 08:48:13;;;;;;;;;7.00;7.00;;;;;24.15;48.87;98387.19;6088990;28;98883;-59
2021/08/02 08:51:19;;;;;;;;;5.80;5.20;;;;;24.51;48.86;98389.69;6089891;28;97502;-58
2021/08/02 08:54:23;;;;;;;;;7.00;7.00;;;;;24.89;47.80;98389.81;6089567;28;97528;-60
2021/08/02 08:57:26;;;;;;;;;8.00;8.00;;;;;25.15;46.45;98395.28;6090876;28;96712;-58
2021/08/02 09:00:30;;;;;;;;;6.00;6.00;;;;;25.46;45.64;98398.56;6092461;28;96731;-60
2021/08/02 09:03:34;;;;;;;;;7.60;7.00;;;;;25.58;45.01;98395.16;6092643;28;97469;-60
2021/08/02 09:06:49;;;;;;;;;6.00;6.00;;;;;25.48;45.15;98389.97;6089789;28;96729;-58
2021/08/02 09:09:58;;;;;;;;;7.00;6.00;;;;;25.42;44.69;98385.78;6092187;28;96684;-59
2021/08/02 09:13:03;;;;;;;;;6.00;6.00;;;;;25.62;44.97;98390.59;6090146;28;97000;-59
2021/08/02 09:16:15;;;;;;;;;6.00;6.00;;;;;25.99;44.32;98401.94;6086416;28;97230;-59
2021/08/02 09:19:18;;;;;;;;;6.00;5.67;;;;;26.19;43.46;98390.88;6088852;28;97526;-59
2021/08/02 09:22:32;;;;;;;;;7.40;6.00;;;;;26.42;43.00;98382.31;6090527;28;98079;-59
2021/08/02 09:25:36;;;;;;;;;6.80;6.00;;;;;26.66;42.50;98385.19;6090448;28;96981;-59
2021/08/02 09:28:39;;;;;;;;;6.00;6.00;;;;;26.88;41.64;98381.28;6087869;28;97156;-59
2021/08/02 09:31:47;;;;;;;;;9.40;9.00;;;;;26.76;40.82;98372.91;6089865;28;97022;-60
2021/08/02 09:34:51;;;;;;;;;6.00;6.00;;;;;27.10;41.13;98362.31;6092018;28;96627;-59
2021/08/02 09:37:56;;;;;;;;;6.00;6.00;;;;;27.35;41.15;98377.00;6091205;28;96897;-60
2021/08/02 09:41:00;;;;;;;;;6.00;6.00;;;;;27.40;40.02;98368.47;6088367;28;98618;-57
2021/08/02 09:44:05;;;;;;;;;6.00;6.00;;;;;27.52;39.89;98379.56;6089759;28;97376;-58
2021/08/02 09:47:09;;;;;;;;;6.40;6.40;;;;;27.63;40.82;98365.28;6091044;28;97430;-57
2021/08/02 09:50:12;;;;;;;;;6.00;6.00;;;;;27.87;39.55;98374.38;6091565;28;97523;-57
2021/08/02 09:53:18;;;;;;;;;7.80;7.00;;;;;27.92;38.37;98381.66;6091627;28;98019;-58
2021/08/02 09:56:23;;;;;;;;;6.40;6.00;;;;;28.25;39.97;98375.97;6089346;28;96620;-57
2021/08/02 09:59:43;;;;;;;;;7.00;7.00;;;;;28.24;38.88;98385.47;6087590;28;97551;-57
2021/08/02 10:02:47;;;;;;;;;6.00;6.00;;;;;28.39;38.88;98388.28;6091342;28;97447;-58
2021/08/02 10:05:52;;;;;;;;;5.80;5.80;;;;;28.56;38.23;98381.66;6090584;28;97616;-59
2021/08/02 10:09:08;;;;;;;;;6.50;6.50;;;;;28.83;38.10;98393.97;6091747;28;98680;-57
2021/08/02 10:12:12;;;;;;;;;7.00;6.60;;;;;29.07;38.21;98381.94;6068054;28;96980;-58
2021/08/02 10:15:18;;;;;;;;;8.00;7.00;;;;;28.98;37.27;98384.84;6085211;28;97320;-58
2021/08/02 10:18:22;;;;;;;;;7.00;6.60;;;;;28.98;37.32;98398.72;6078112;28;96470;-59
2021/08/02 10:21:38;;;;;;;;;9.40;9.00;;;;;29.12;36.33;98398.34;6089149;28;99186;-58
2021/08/02 10:24:51;;;;;;;;;7.50;7.00;;;;;29.08;36.51;98398.22;6075413;28;97414;-58
2021/08/02 10:28:06;;;;;;;;;7.00;7.00;;;;;29.31;36.66;98394.88;6089280;28;97650;-59
2021/08/02 10:31:09;;;;;;;;;8.80;8.20;;;;;29.45;37.00;98400.81;6092359;28;96586;-59
2021/08/02 10:34:16;;;;;;;;;10.00;9.20;;;;;29.10;35.89;98407.00;6076373;28;97010;-57
2021/08/02 10:37:30;;;;;;;;;8.25;8.25;;;;;29.25;35.40;98397.09;6075633;28;97602;-59
2021/08/02 10:40:51;;;;;;;;;8.00;8.00;;;;;29.42;36.20;98396.75;6089052;28;97707;-58
2021/08/02 10:43:55;;;;;;;;;8.00;7.00;;;;;29.47;34.87;98393.72;6068984;28;100506;-57
2021/08/02 10:47:01;;;;;;;;;8.00;8.00;;;;;29.27;35.02;98400.31;6075790;28;97632;-57
2021/08/02 10:50:06;;;;;;;;;9.00;8.60;;;;;29.25;35.27;98397.91;6083607;28;97447;-57
2021/08/02 10:53:13;;;;;;;;;10.00;9.00;;;;;29.27;34.80;98400.31;6082957;28;97351;-58
2021/08/02 10:56:26;;;;;;;;;8.00;8.00;;;;;29.40;34.92;98388.00;6084918;28;97810;-57
2021/08/02 10:59:37;;;;;;;;;9.00;7.20;;;;;29.13;35.00;98392.41;6090680;28;96850;-58
2021/08/02 11:02:49;;;;;;;;;8.40;8.00;;;;;29.57;35.40;98384.84;6091229;28;97881;-56
2021/08/02 11:05:53;;;;;;;;;8.00;8.00;;;;;29.67;35.24;98384.31;6073875;28;97381;-57
2021/08/02 11:08:58;;;;;;;;;7.00;7.00;;;;;29.73;34.61;98356.25;6091301;28;97039;-57
2021/08/02 11:12:19;;;;;;;;;8.00;7.20;;;;;29.67;33.99;98380.72;6077011;28;97496;-59
2021/08/02 11:15:24;;;;;;;;;8.00;8.00;;;;;29.53;35.08;98375.63;6090984;28;97272;-58
2021/08/02 11:18:29;;;;;;;;;8.60;8.60;;;;;29.66;35.62;98371.56;6090508;28;98283;-57
2021/08/02 11:21:32;;;;;;;;;9.00;9.00;;;;;29.83;35.94;98375.97;6089176;28;97535;-58
2021/08/02 11:24:37;;;;;;;;;8.00;8.00;;;;;30.05;36.16;98378.13;6090199;28;96692;-57
2021/08/02 11:27:52;;;;;;;;;8.50;8.00;;;;;30.03;35.44;98377.66;6090808;28;96622;-58
2021/08/02 11:30:55;;;;;;;;;9.00;9.00;;;;;30.10;34.65;98380.59;6091121;28;96428;-57
2021/08/02 11:34:19;;;;;;;;;10.00;9.00;;;;;30.28;34.32;98382.97;6089924;28;97819;-58
2021/08/02 11:37:24;;;;;;;;;9.25;8.00;;;;;30.65;34.45;98381.41;6090033;28;96791;-57
2021/08/02 11:40:34;;;;;;;;;6.00;6.00;;;;;30.93;33.92;98387.56;6091033;28;97745;-58
2021/08/02 11:43:45;;;;;;;;;7.00;7.00;;;;;30.94;33.22;98391.94;6089796;28;97703;-57
2021/08/02 11:46:49;;;;;;;;;8.20;8.00;;;;;31.07;33.14;98392.63;6089818;28;96928;-58
2021/08/02 11:49:54;;;;;;;;;7.00;7.00;;;;;31.14;32.96;98394.72;6089660;28;98810;-57
2021/08/02 11:53:03;;;;;;;;;7.00;7.00;;;;;31.04;32.99;98386.97;6090031;28;96871;-58
2021/08/02 11:56:07;;;;;;;;;8.25;8.25;;;;;31.27;31.87;98398.97;6072807;28;96649;-57
2021/08/02 11:59:20;;;;;;;;;6.00;6.00;;;;;31.26;31.93;98402.94;6081851;28;97125;-58
2021/08/02 12:02:36;;;;;;;;;7.00;7.00;;;;;31.36;32.14;98396.75;6080199;28;96507;-58
2021/08/02 12:05:41;;;;;;;;;8.00;7.40;;;;;31.37;31.62;98404.72;6084472;28;97422;-57
2021/08/02 12:08:52;;;;;;;;;7.00;7.00;;;;;31.47;31.83;98408.09;6079805;28;96449;-59
2021/08/02 12:11:58;;;;;;;;;8.40;8.00;;;;;31.46;32.10;98403.69;6073692;28;97523;-58
2021/08/02 12:15:07;;;;;;;;;7.00;7.00;;;;;30.95;32.70;98389.97;6088414;28;98363;-58
2021/08/02 12:18:10;;;;;;;;;8.00;7.00;;;;;30.80;33.65;98407.56;6083260;28;96785;-58
2021/08/02 12:21:21;;;;;;;;;7.00;6.00;;;;;30.61;33.54;98404.78;6087744;28;97707;-59
2021/08/02 12:24:25;;;;;;;;;8.40;8.40;;;;;30.35;34.38;98411.75;6080056;28;96558;-58
2021/08/02 12:27:28;;;;;;;;;7.00;7.00;;;;;29.81;33.81;98419.97;6073368;28;96891;-57
2021/08/02 12:30:33;;;;;;;;;6.00;6.00;;;;;29.50;33.92;98412.47;6080078;28;97397;-57
2021/08/02 12:33:37;;;;;;;;;6.00;6.00;;;;;29.30;34.66;98410.72;6088447;28;97452;-57
2021/08/02 12:36:40;;;;;;;;;6.00;5.75;;;;;29.04;35.58;98407.59;6092351;28;96686;-58
2021/08/02 12:39:43;;;;;;;;;6.00;5.00;;;;;28.57;36.35;98416.56;6091592;28;97586;-57
2021/08/02 12:42:48;;;;;;;;;5.00;5.00;;;;;28.63;37.58;98408.81;6093180;28;97126;-57
2021/08/02 12:45:52;;;;;;;;;5.20;5.20;;;;;28.78;37.31;98403.31;6092339;28;97317;-58
2021/08/02 12:48:56;;;;;;;;;6.20;6.20;;;;;28.77;37.11;98404.50;6093886;28;96405;-58
2021/08/02 12:52:00;;;;;;;;;6.00;6.00;;;;;28.66;36.60;98388.66;6087240;28;98623;-58
2021/08/02 12:55:05;;;;;;;;;6.60;6.60;;;;;28.62;36.57;98394.13;6084029;28;97616;-59
2021/08/02 12:58:09;;;;;;;;;7.75;7.00;;;;;28.82;37.11;98395.94;6090157;28;97642;-58
2021/08/02 13:01:14;;;;;;;;;7.00;7.00;;;;;28.84;36.84;98388.03;6092392;28;97535;-58
2021/08/02 13:04:18;;;;;;;;;6.20;6.20;;;;;28.78;36.60;98395.00;6093211;28;97533;-58
2021/08/02 13:07:21;;;;;;;;;6.00;5.60;;;;;28.92;36.51;98380.75;6091921;28;98150;-58
2021/08/02 13:10:27;;;;;;;;;5.00;5.00;;;;;29.03;34.78;98389.34;6093535;28;97044;-59
2021/08/02 13:13:31;;;;;;;;;5.00;4.00;;;;;29.36;35.00;98386.28;6090247;28;97182;-59
2021/08/02 13:16:36;;;;;;;;;5.00;5.00;;;;;29.43;33.93;98397.56;6089335;28;97569;-58
2021/08/02 13:19:42;;;;;;;;;6.40;6.40;;;;;29.36;34.20;98394.63;6083971;28;97091;-58
2021/08/02 13:22:50;;;;;;;;;4.00;4.00;;;;;29.52;34.33;98403.75;6082355;28;97435;-57
2021/08/02 13:29:15;;;;;;;;;5.00;5.00;;;;;29.67;33.49;98380.72;6091367;28;98651;-59
2021/08/02 13:32:20;;;;;;;;;6.00;6.00;;;;;29.86;33.90;98397.47;6091765;28;96771;-59
2021/08/02 13:35:25;;;;;;;;;6.00;6.00;;;;;29.96;33.96;98391.38;6079840;28;96620;-58
2021/08/02 13:38:28;;;;;;;;;7.00;6.40;;;;;30.06;33.95;98392.81;6081317;28;97418;-58
2021/08/02 13:41:32;;;;;;;;;6.00;6.00;;;;;29.99;33.03;98390.69;6084921;28;97526;-58
2021/08/02 13:44:35;;;;;;;;;6.60;6.00;;;;;29.97;33.17;98386.63;6079715;28;97895;-58
2021/08/02 13:47:40;;;;;;;;;6.00;6.00;;;;;30.08;34.41;98387.69;6088564;28;97668;-57
2021/08/02 13:50:46;;;;;;;;;6.00;6.00;;;;;30.27;33.66;98378.56;6081205;28;96526;-59
2021/08/02 13:53:50;;;;;;;;;7.00;6.50;;;;;30.08;33.57;98394.06;6077096;28;96776;-59
2021/08/02 13:56:53;;;;;;;;;7.00;7.00;;;;;30.08;34.67;98387.69;6074956;28;97600;-57
2021/08/02 14:00:07;;;;;;;;;6.00;6.00;;;;;30.00;34.03;98364.50;6090077;28;96818;-58
2021/08/02 14:03:20;;;;;;;;;7.40;6.40;;;;;30.14;34.35;98391.81;6089659;28;97509;-58
2021/08/02 14:06:24;;;;;;;;;8.00;6.00;;;;;29.97;33.92;98392.19;6079402;28;96977;-57
2021/08/02 14:09:27;;;;;;;;;7.00;6.60;;;;;29.82;34.98;98393.78;6085736;28;97529;-58
2021/08/02 14:12:34;;;;;;;;;6.40;6.40;;;;;29.79;34.88;98391.75;6091265;28;97523;-58
2021/08/02 14:15:48;;;;;;;;;6.50;6.50;;;;;29.95;34.39;98400.09;6087207;28;96808;-57
2021/08/02 14:19:04;;;;;;;;;5.00;5.00;;;;;29.91;34.60;98383.31;6081337;28;97155;-59
2021/08/02 14:22:08;;;;;;;;;6.20;6.00;;;;;29.78;34.93;98392.91;6083696;28;97107;-57
2021/08/02 14:25:11;;;;;;;;;7.00;7.00;;;;;29.90;35.19;98380.94;6083335;28;97262;-57
2021/08/02 14:28:15;;;;;;;;;6.00;6.00;;;;;30.17;35.05;98384.72;6075991;28;98689;-58
2021/08/02 14:31:18;;;;;;;;;5.00;5.00;;;;;30.19;35.01;98379.59;6091640;28;96840;-58
2021/08/02 14:34:23;;;;;;;;;7.00;7.00;;;;;30.16;34.03;98375.56;6082397;28;97614;-58